Time;durP1;ratioP1;P1;durP2;ratioP2;P2;SDS_P1;SDS_P2;PMS_P1;PMS_P2;Temp;Humidity;BMP_temperature;BMP_pressure;BME280_temperature;BME280_humidity;BME280_pressure;Samples;Min_cycle;Max_cycle;Signal;HPM_P1;HPM_P2
2022/09/16 00:01:15;;;;;;;8.45;2.47;;;;;;;13.40;63.73;101096.97;5147127;28;20049;-46
2022/09/16 00:03:49;;;;;;;9.13;2.03;;;;;;;13.44;63.72;101091.19;5145368;28;20331;-35
2022/09/16 00:06:25;;;;;;;10.90;2.10;;;;;;;13.44;63.62;101087.69;5144019;28;20116;-51
2022/09/16 00:09:00;;;;;;;11.07;1.85;;;;;;;13.44;63.64;101087.69;5138228;28;20413;-46
2022/09/16 00:11:34;;;;;;;11.48;1.67;;;;;;;13.45;63.58;101100.81;5146249;28;20136;-44
2022/09/16 00:14:09;;;;;;;9.30;2.00;;;;;;;13.42;63.52;101084.38;5146600;28;20052;-43
2022/09/16 00:16:42;;;;;;;7.97;1.70;;;;;;;13.55;63.68;101096.19;5149159;28;20403;-48
2022/09/16 00:19:15;;;;;;;11.45;1.98;;;;;;;13.57;63.56;101104.00;5147667;28;20466;-44
2022/09/16 00:21:48;;;;;;;;;;;;;;;13.56;63.55;101103.16;5144319;28;20101;-46
2022/09/16 00:24:21;;;;;;;10.30;1.77;;;;;;;13.43;63.66;101096.66;5147187;28;19968;-49
2022/09/16 00:26:54;;;;;;;14.10;2.30;;;;;;;13.36;63.69;101097.28;5148675;28;20049;-49
2022/09/16 00:29:28;;;;;;;5.15;1.55;;;;;;;13.31;63.85;101099.59;5146532;28;20057;-47
2022/09/16 00:32:01;;;;;;;15.63;2.70;;;;;;;13.25;63.91;101094.09;5144729;28;20049;-48
2022/09/16 00:34:33;;;;;;;10.00;2.85;;;;;;;13.17;63.86;101080.81;5144853;28;20413;-44
2022/09/16 00:37:50;;;;;;;8.98;2.42;;;;;;;13.21;63.95;101098.88;5162600;28;20453;-42
2022/09/16 00:40:23;;;;;;;6.10;1.67;;;;;;;13.08;64.13;101093.19;5134198;28;20041;-47
2022/09/16 00:42:56;;;;;;;4.78;1.63;;;;;;;13.07;64.15;101100.31;5145711;28;20045;-44
2022/09/16 00:45:30;;;;;;;6.97;2.10;;;;;;;13.13;64.22;101112.09;5145293;28;20409;-45
2022/09/16 00:48:07;;;;;;;4.22;1.90;;;;;;;13.05;64.21;101093.50;5141038;28;20478;-47
2022/09/16 00:54:26;;;;;;;4.57;2.30;;;;;;;12.97;64.18;101090.81;5152185;28;20060;-47
2022/09/16 00:57:01;;;;;;;10.63;1.77;;;;;;;13.05;64.29;101114.72;5123504;28;20476;-45
2022/09/16 00:59:37;;;;;;;7.68;1.98;;;;;;;12.96;64.01;101107.72;5151871;28;20053;-50
2022/09/16 01:02:16;;;;;;;7.40;3.30;;;;;;;13.06;64.25;101121.69;5167415;28;20048;-47
2022/09/16 01:04:55;;;;;;;6.50;1.67;;;;;;;13.00;63.97;101111.72;5132008;28;20071;-47
2022/09/16 01:07:32;;;;;;;8.45;3.33;;;;;;;13.02;64.19;101117.69;5171789;28;20444;-45
2022/09/16 01:10:06;;;;;;;5.97;1.88;;;;;;;12.97;64.27;101122.63;5171992;28;20553;-45
2022/09/16 01:12:41;;;;;;;6.50;1.80;;;;;;;13.02;64.23;101126.47;5173653;28;20052;-45
2022/09/16 01:15:16;;;;;;;3.92;1.55;;;;;;;13.07;64.43;101126.03;5171345;28;20048;-43
2022/09/16 01:18:14;;;;;;;3.70;1.23;;;;;;;13.02;64.39;101117.69;5174700;28;20041;-46
2022/09/16 01:21:18;;;;;;;5.90;1.90;;;;;;;13.07;64.28;101129.50;5170452;28;20044;-47
2022/09/16 01:24:44;;;;;;;2.70;1.52;;;;;;;13.06;64.36;101111.06;5155766;28;20501;-43
2022/09/16 01:27:54;;;;;;;4.03;1.33;;;;;;;12.92;64.45;101097.44;5159241;28;20501;-48
2022/09/16 01:30:50;;;;;;;4.88;2.33;;;;;;;12.97;64.55;101091.66;5153959;28;20485;-47
2022/09/16 01:33:36;;;;;;;5.22;2.20;;;;;;;13.00;64.52;101090.50;5167643;28;20033;-45
2022/09/16 01:36:29;;;;;;;2.75;1.60;;;;;;;12.91;64.39;101071.06;5159491;28;20881;-45
2022/09/16 01:39:18;;;;;;;4.28;1.10;;;;;;;12.96;64.28;101095.28;5161217;28;20038;-49
2022/09/16 01:42:19;;;;;;;5.32;1.60;;;;;;;13.02;64.63;101107.09;5163828;28;20056;-45
2022/09/16 01:44:59;;;;;;;3.60;1.60;;;;;;;12.93;64.57;101096.44;5160369;28;20175;-48
2022/09/16 01:47:41;;;;;;;6.97;2.20;;;;;;;13.03;64.58;101116.69;5160552;28;20488;-39
2022/09/16 01:50:20;;;;;;;7.20;1.93;;;;;;;13.01;64.69;101135.44;5163355;28;20478;-48
2022/09/16 01:53:08;;;;;;;6.05;2.25;;;;;;;12.96;64.56;101132.41;5147426;28;20509;-44
2022/09/16 01:55:47;;;;;;;3.63;1.42;;;;;;;13.04;64.54;101144.91;5167202;28;20041;-47
2022/09/16 01:58:26;;;;;;;2.15;1.80;;;;;;;13.05;64.74;101130.63;5160417;28;20174;-45
2022/09/16 02:01:05;;;;;;;6.28;1.60;;;;;;;13.02;64.62;101130.94;5153894;28;20514;-48
2022/09/16 02:03:42;;;;;;;9.05;1.73;;;;;;;13.02;64.75;101134.44;5164377;28;21350;-48
2022/09/16 02:06:21;;;;;;;9.88;2.42;;;;;;;12.90;64.72;101117.97;5165235;28;20045;-48
2022/09/16 02:08:57;;;;;;;9.15;1.98;;;;;;;13.02;64.52;101125.66;5152370;28;20463;-43
2022/09/16 02:11:30;;;;;;;8.27;1.95;;;;;;;12.89;64.44;101097.75;5166583;28;20111;-40
2022/09/16 02:14:10;;;;;;;12.13;2.15;;;;;;;12.96;64.50;101105.91;5161948;28;20490;-46
2022/09/16 02:16:49;;;;;;;7.55;2.10;;;;;;;13.00;64.44;101109.06;5157108;28;20052;-46
2022/09/16 02:19:26;;;;;;;6.72;2.05;;;;;;;13.01;64.23;101103.63;5163051;28;20041;-44
2022/09/16 02:22:01;;;;;;;7.22;2.75;;;;;;;12.91;64.54;101093.13;5164850;28;20485;-47
2022/09/16 02:24:36;;;;;;;6.85;2.10;;;;;;;12.97;64.57;101096.13;5159378;28;20168;-43
2022/09/16 02:27:13;;;;;;;7.65;2.13;;;;;;;12.88;64.51;101093.44;5152084;28;20142;-52
2022/09/16 02:29:51;;;;;;;7.22;2.47;;;;;;;12.93;64.64;101095.63;5154832;28;20044;-44
2022/09/16 02:32:27;;;;;;;17.67;4.30;;;;;;;12.95;64.61;101106.91;5157279;28;20405;-49
2022/09/16 02:35:03;;;;;;;8.23;2.47;;;;;;;13.00;64.38;101123.13;5154602;28;20057;-46
2022/09/16 02:37:40;;;;;;;5.90;2.15;;;;;;;12.96;64.66;101136.88;5148771;28;20410;-47
2022/09/16 02:40:19;;;;;;;13.43;2.75;;;;;;;12.76;64.89;101110.63;5160989;28;20120;-48
2022/09/16 02:42:52;;;;;;;7.80;2.33;;;;;;;12.76;64.94;101110.63;5160624;28;20064;-47
2022/09/16 02:45:33;;;;;;;16.85;2.67;;;;;;;12.78;64.84;101113.91;5160052;28;20037;-47
2022/09/16 02:48:15;;;;;;;11.82;2.08;;;;;;;12.84;65.02;101118.59;5167886;28;20091;-45
2022/09/16 02:50:57;;;;;;;9.65;2.70;;;;;;;12.89;64.76;101110.19;5164534;28;20358;-41
2022/09/16 02:53:44;;;;;;;3.70;1.58;;;;;;;12.84;64.87;101097.38;5161929;28;20053;-43
2022/09/16 02:56:23;;;;;;;8.55;1.92;;;;;;;12.92;64.76;101113.34;5160186;28;20381;-49
2022/09/16 02:58:56;;;;;;;10.27;1.70;;;;;;;12.89;64.72;101111.00;5171154;28;20488;-46
2022/09/16 03:01:30;;;;;;;7.80;2.35;;;;;;;12.87;64.66;101102.38;5164294;28;20056;-44
2022/09/16 03:04:04;;;;;;;9.65;2.97;;;;;;;12.88;64.56;101104.06;5163193;28;20505;-44
2022/09/16 03:06:38;;;;;;;8.15;1.85;;;;;;;12.78;64.82;101087.41;5162352;28;20448;-49
2022/09/16 03:09:14;;;;;;;3.38;1.48;;;;;;;12.78;65.00;101092.72;5163632;28;20056;-45
2022/09/16 03:12:37;;;;;;;5.65;2.38;;;;;;;12.76;65.03;101094.72;5166782;28;20479;-44
2022/09/16 03:15:44;;;;;;;10.02;3.08;;;;;;;12.60;65.13;101081.34;5152403;28;20045;-44
2022/09/16 03:18:32;;;;;;;6.28;1.80;;;;;;;12.59;65.16;101090.31;5164196;28;20079;-48
2022/09/16 03:21:15;;;;;;;7.03;1.80;;;;;;;12.50;65.26;101073.53;5160497;28;20128;-44
2022/09/16 03:23:58;;;;;;;10.10;2.53;;;;;;;12.44;65.17;101080.28;5169854;28;20045;-44
2022/09/16 03:26:40;;;;;;;10.32;2.17;;;;;;;12.37;65.24;101073.94;5161450;28;20053;-47
2022/09/16 03:29:22;;;;;;;17.77;3.70;;;;;;;12.37;65.25;101078.41;5170144;28;20049;-46
2022/09/16 03:32:04;;;;;;;9.68;1.80;;;;;;;12.34;65.29;101087.50;5154228;28;20045;-43
2022/09/16 03:34:41;;;;;;;10.55;1.85;;;;;;;12.42;65.30;101105.28;5152337;28;20068;-46
2022/09/16 03:37:17;;;;;;;9.20;1.70;;;;;;;12.33;65.36;101092.97;5131615;28;20041;-53
2022/09/16 03:39:55;;;;;;;10.18;1.85;;;;;;;12.34;65.46;101106.03;5143610;28;20447;-46
2022/09/16 03:42:28;;;;;;;11.38;2.88;;;;;;;12.33;65.38;101101.72;5144084;28;20042;-49
2022/09/16 03:45:00;;;;;;;10.40;1.95;;;;;;;12.24;65.55;101089.41;5144927;28;20041;-47
2022/09/16 03:47:33;;;;;;;6.10;1.90;;;;;;;12.24;65.36;101089.41;5125029;28;20046;-49
2022/09/16 03:50:09;;;;;;;9.88;3.13;;;;;;;12.22;65.40;101086.09;5140844;28;20041;-49
2022/09/16 03:52:41;;;;;;;11.90;2.80;;;;;;;12.13;65.55;101087.00;5151309;28;20489;-45
2022/09/16 03:55:16;;;;;;;17.80;2.53;;;;;;;12.07;65.62;101083.16;5146932;28;20485;-47
2022/09/16 03:57:48;;;;;;;7.47;2.00;;;;;;;12.03;65.71;101078.34;5144966;28;20152;-43
2022/09/16 04:00:21;;;;;;;10.00;1.92;;;;;;;12.14;65.88;101101.91;5141212;28;20478;-45
2022/09/16 04:02:54;;;;;;;;;;;;;;;12.19;65.50;101102.28;5136585;28;20041;-45
2022/09/16 04:05:26;;;;;;;9.95;2.15;;;;;;;12.21;65.50;101100.31;5145109;28;20301;-44
2022/09/16 04:07:59;;;;;;;3.90;1.85;;;;;;;12.21;65.62;101079.97;5137925;28;20120;-46
2022/09/16 04:10:33;;;;;;;10.40;2.00;;;;;;;12.33;65.30;101093.78;5135121;28;20054;-43
2022/09/16 04:13:06;;;;;;;8.77;1.95;;;;;;;12.35;65.19;101091.78;5145255;28;21109;-43
2022/09/16 04:15:38;;;;;;;6.00;1.40;;;;;;;12.42;65.21;101092.84;5146823;28;20418;-46
2022/09/16 04:18:11;;;;;;;9.48;2.33;;;;;;;12.41;65.15;101088.53;5151079;28;20045;-45
2022/09/16 04:20:44;;;;;;;14.60;2.28;;;;;;;12.50;65.19;101093.88;5152041;28;20045;-44
2022/09/16 04:23:16;;;;;;;10.80;2.92;;;;;;;12.45;65.20;101087.25;5152158;28;20064;-44
2022/09/16 04:25:59;;;;;;;12.82;2.45;;;;;;;12.35;65.21;101078.56;5144978;28;20045;-36
2022/09/16 04:28:37;;;;;;;9.05;1.60;;;;;;;12.41;65.20;101079.75;5147266;28;20366;-46
2022/09/16 04:31:13;;;;;;;11.65;1.83;;;;;;;12.51;65.19;101087.59;5147685;28;20049;-44
2022/09/16 04:33:48;;;;;;;9.13;2.60;;;;;;;12.40;65.09;101084.22;5157088;28;20429;-50
2022/09/16 04:36:21;;;;;;;4.80;1.40;;;;;;;12.41;65.12;101079.75;5164386;28;20472;-44
2022/09/16 04:38:54;;;;;;;7.45;2.20;;;;;;;12.50;65.10;101085.94;5163610;28;20050;-44
2022/09/16 04:41:28;;;;;;;2.75;1.33;;;;;;;12.41;65.26;101090.34;5161180;28;20509;-45
2022/09/16 04:44:01;;;;;;;10.65;2.83;;;;;;;12.50;65.16;101107.13;5165548;28;20427;-42
2022/09/16 04:46:35;;;;;;;13.90;3.00;;;;;;;12.44;65.12;101090.88;5169457;28;20473;-46
2022/09/16 04:49:07;;;;;;;10.55;1.92;;;;;;;12.52;65.13;101092.75;5170611;28;20041;-44
2022/09/16 04:51:40;;;;;;;14.35;2.88;;;;;;;12.46;65.10;101078.31;5162022;28;20049;-45
2022/09/16 04:54:13;;;;;;;9.25;1.52;;;;;;;12.62;65.04;101097.94;5160548;28;20038;-48
2022/09/16 04:56:47;;;;;;;18.95;1.92;;;;;;;12.56;65.07;101090.63;5162694;28;20618;-46
2022/09/16 04:59:20;;;;;;;9.93;1.73;;;;;;;12.50;65.18;101089.41;5158235;28;20052;-47
2022/09/16 05:01:53;;;;;;;2.90;1.88;;;;;;;12.37;65.32;101079.25;5167640;28;20115;-49
2022/09/16 05:04:25;;;;;;;6.95;1.60;;;;;;;12.36;65.31;101082.88;5143896;28;20523;-42
2022/09/16 05:06:58;;;;;;;6.65;1.80;;;;;;;12.39;65.59;101093.16;5156636;28;20532;-48
2022/09/16 05:09:31;;;;;;;12.75;2.10;;;;;;;12.40;65.35;101094.81;5168918;28;20476;-52
2022/09/16 05:12:05;;;;;;;9.63;3.45;;;;;;;12.40;65.50;101089.53;5171885;28;20063;-43
2022/09/16 05:14:38;;;;;;;9.48;1.90;;;;;;;12.36;65.36;101088.19;5168656;28;22672;-47
2022/09/16 05:17:11;;;;;;;12.20;2.88;;;;;;;12.34;65.33;101076.91;5158222;28;20132;-47
2022/09/16 05:19:43;;;;;;;8.85;2.35;;;;;;;12.32;65.30;101089.47;5165420;28;20040;-48
2022/09/16 05:22:16;;;;;;;11.20;2.63;;;;;;;12.25;65.42;101091.06;5169687;28;20052;-46
2022/09/16 05:24:49;;;;;;;8.73;2.17;;;;;;;12.35;65.57;101117.47;5161474;28;20387;-44
2022/09/16 05:27:23;;;;;;;12.68;2.17;;;;;;;12.31;65.43;101114.28;5150197;28;20139;-45
2022/09/16 05:29:55;;;;;;;11.30;2.70;;;;;;;12.33;66.19;101120.28;5162960;28;20104;-46
2022/09/16 05:32:28;;;;;;;15.85;2.78;;;;;;;12.26;66.22;101123.66;5171008;28;20429;-47
2022/09/16 05:35:00;;;;;;;6.28;2.03;;;;;;;12.32;65.99;101134.47;5166390;28;20391;-50
2022/09/16 05:37:33;;;;;;;6.85;1.98;;;;;;;12.23;65.88;101116.88;5159262;28;20060;-42
2022/09/16 05:40:08;;;;;;;6.88;1.33;;;;;;;12.23;65.60;101124.81;5157663;28;20041;-46
2022/09/16 05:42:42;;;;;;;6.25;3.25;;;;;;;12.19;65.55;101129.59;5150547;28;20191;-45
2022/09/16 05:45:15;;;;;;;2.97;1.38;;;;;;;12.17;65.69;101147.47;5159237;28;20314;-44
2022/09/16 05:47:49;;;;;;;5.10;1.45;;;;;;;12.17;65.59;101162.50;5149538;28;20376;-46
2022/09/16 05:50:22;;;;;;;2.65;1.45;;;;;;;12.08;65.64;101151.03;5150241;28;20045;-44
2022/09/16 05:52:55;;;;;;;1.70;1.00;;;;;;;12.03;65.64;101147.16;5154033;28;20041;-42
2022/09/16 05:55:28;;;;;;;1.55;1.05;;;;;;;12.02;65.75;101133.09;5152234;28;20056;-45
2022/09/16 05:58:03;;;;;;;3.08;1.60;;;;;;;11.96;65.63;101129.22;5154218;28;20457;-50
2022/09/16 06:00:36;;;;;;;4.40;1.20;;;;;;;12.02;65.74;101132.28;5148866;28;20049;-49
2022/09/16 06:03:09;;;;;;;;;;;;;;;12.04;65.59;101130.28;5146031;28;21571;-49
2022/09/16 06:05:42;;;;;;;3.85;1.10;;;;;;;12.03;65.65;101129.44;5150567;28;20246;-46
2022/09/16 06:08:15;;;;;;;1.67;1.20;;;;;;;11.95;65.69;101106.41;5158077;28;20483;-47
2022/09/16 06:10:49;;;;;;;3.55;1.50;;;;;;;11.99;65.66;101114.88;5147462;28;20520;-46
2022/09/16 06:13:24;;;;;;;3.83;1.42;;;;;;;12.09;65.59;101112.13;5148587;28;20128;-49
2022/09/16 06:15:57;;;;;;;10.48;2.83;;;;;;;12.12;65.45;101101.25;5162501;28;20072;-46
2022/09/16 06:18:32;;;;;;;5.22;1.63;;;;;;;12.33;65.21;101109.69;5146865;28;20405;-43
2022/09/16 06:21:08;;;;;;;5.25;1.30;;;;;;;12.59;64.92;101108.84;5156742;28;20397;-44
2022/09/16 06:23:41;;;;;;;5.03;1.95;;;;;;;12.79;64.71;101115.59;5154278;28;20051;-49
2022/09/16 06:26:18;;;;;;;5.07;1.60;;;;;;;12.87;64.51;101117.44;5154627;28;20451;-49
2022/09/16 06:28:53;;;;;;;5.97;1.90;;;;;;;12.89;64.44;101108.34;5150131;28;20073;-46
2022/09/16 06:31:27;;;;;;;2.63;1.50;;;;;;;12.95;64.51;101119.34;5149803;28;20415;-46
2022/09/16 06:34:01;;;;;;;6.10;1.52;;;;;;;12.99;64.33;101107.41;5162032;28;20140;-46
2022/09/16 06:36:35;;;;;;;;;;;;;;;13.19;64.16;101106.16;5157461;28;20433;-45
2022/09/16 06:39:11;;;;;;;16.08;3.63;;;;;;;13.66;63.58;101108.31;5163858;28;19943;-45
2022/09/16 06:41:44;;;;;;;10.40;1.92;;;;;;;14.79;62.90;101105.78;5149071;28;20069;-49
2022/09/16 06:44:19;;;;;;;6.70;1.95;;;;;;;16.66;60.92;101110.03;5147895;28;20050;-45
2022/09/16 06:46:52;;;;;;;6.57;2.10;;;;;;;17.82;59.24;101095.91;5158548;28;20076;-46
2022/09/16 06:49:25;;;;;;;11.25;2.83;;;;;;;19.80;57.33;101100.75;5140619;28;20289;-47
2022/09/16 06:51:58;;;;;;;9.27;3.28;;;;;;;22.09;54.96;101110.38;5147619;28;20127;-50
2022/09/16 06:54:31;;;;;;;6.43;2.00;;;;;;;22.74;53.92;101128.03;5137461;28;20463;-45
2022/09/16 06:57:04;;;;;;;9.70;2.22;;;;;;;21.94;52.31;101131.38;5153929;28;20473;-42
2022/09/16 06:59:38;;;;;;;;;;;;;;;20.67;52.67;101135.63;5156608;28;20487;-45
2022/09/16 07:02:12;;;;;;;7.75;1.67;;;;;;;19.47;53.05;101131.97;5148303;28;19927;-44
2022/09/16 07:04:45;;;;;;;2.70;0.90;;;;;;;18.44;53.83;101127.25;5155030;28;20049;-44
2022/09/16 07:07:19;;;;;;;5.70;1.33;;;;;;;17.63;54.93;101128.56;5142122;28;20402;-43
2022/09/16 07:09:52;;;;;;;5.68;2.50;;;;;;;17.04;55.40;101141.00;5134521;28;20045;-44
2022/09/16 07:12:26;;;;;;;8.20;1.88;;;;;;;16.46;56.02;101126.56;5148243;28;20421;-42
2022/09/16 07:15:01;;;;;;;8.52;2.45;;;;;;;16.04;56.42;101135.94;5141112;28;20048;-45
2022/09/16 07:17:34;;;;;;;8.82;1.75;;;;;;;15.72;56.67;101138.81;5154323;28;20064;-46
2022/09/16 07:20:08;;;;;;;6.88;1.50;;;;;;;15.49;56.74;101131.59;5150083;28;20038;-45
2022/09/16 07:22:41;;;;;;;5.70;1.85;;;;;;;15.32;56.86;101122.84;5152691;28;20059;-52
2022/09/16 07:25:14;;;;;;;11.80;2.28;;;;;;;15.25;57.16;101127.22;5142444;28;20057;-45
2022/09/16 07:27:48;;;;;;;;;;;;;;;15.15;57.29;101127.44;5152322;28;20876;-50
2022/09/16 07:30:22;;;;;;;10.20;2.08;;;;;;;16.04;56.78;101122.63;5139264;28;19927;-46
2022/09/16 07:32:55;;;;;;;9.23;1.88;;;;;;;18.61;54.45;101125.13;5147216;28;20722;-49
2022/09/16 07:35:28;;;;;;;;;;;;;;;21.28;51.37;101129.03;5150697;28;20440;-43
2022/09/16 07:38:01;;;;;;;5.10;1.20;;;;;;;23.65;49.18;101118.19;5151504;28;19999;-44
2022/09/16 07:40:35;;;;;;;5.57;1.35;;;;;;;25.74;47.48;101128.28;5146749;28;20037;-48
2022/09/16 07:43:08;;;;;;;6.05;1.00;;;;;;;27.17;46.06;101129.66;5138183;28;20365;-49
2022/09/16 07:45:43;;;;;;;6.82;1.65;;;;;;;28.21;45.01;101135.81;5150620;28;20068;-48
2022/09/16 07:48:16;;;;;;;3.10;1.15;;;;;;;29.46;43.42;101139.75;5147339;28;20482;-49
2022/09/16 07:50:57;;;;;;;14.93;2.50;;;;;;;30.76;41.70;101125.56;5146555;28;20389;-48
2022/09/16 07:53:31;;;;;;;7.05;1.58;;;;;;;31.81;39.41;101128.31;5151247;28;20044;-50
2022/09/16 07:56:06;;;;;;;8.88;1.60;;;;;;;32.53;37.54;101145.72;5141721;28;20131;-52
2022/09/16 07:58:40;;;;;;;6.05;1.25;;;;;;;32.36;35.48;101139.84;5146869;28;20794;-48
2022/09/16 08:01:16;;;;;;;4.50;1.35;;;;;;;30.90;35.74;101133.16;5149185;28;20868;-50
2022/09/16 08:03:50;;;;;;;3.97;1.30;;;;;;;29.07;35.77;101145.63;5149471;28;20049;-42
2022/09/16 08:06:26;;;;;;;5.28;0.88;;;;;;;27.15;36.61;101149.94;5142815;28;20072;-46
2022/09/16 08:09:01;;;;;;;4.75;1.15;;;;;;;25.40;37.31;101169.84;5155534;28;20044;-46
2022/09/16 08:11:34;;;;;;;3.63;1.00;;;;;;;23.90;38.32;101170.13;5152520;28;20635;-50
2022/09/16 08:14:07;;;;;;;4.80;1.88;;;;;;;22.39;39.54;101182.41;5145420;28;20247;-46
2022/09/16 08:16:41;;;;;;;;;;;;;;;20.98;41.40;101188.63;5161382;28;20057;-45
2022/09/16 08:19:14;;;;;;;6.45;1.52;;;;;;;19.96;42.53;101185.28;5159116;28;20423;-49
2022/09/16 08:21:49;;;;;;;4.43;1.02;;;;;;;19.04;44.10;101177.69;5147301;28;20415;-44
2022/09/16 08:24:22;;;;;;;6.28;1.42;;;;;;;18.40;45.32;101195.53;5142860;28;20146;-44
2022/09/16 08:26:55;;;;;;;8.35;1.85;;;;;;;17.92;46.15;101203.28;5147928;28;20116;-43
2022/09/16 08:29:28;;;;;;;5.90;1.42;;;;;;;17.52;46.92;101218.81;5154818;28;20162;-48
2022/09/16 08:32:03;;;;;;;15.13;2.05;;;;;;;17.12;47.82;101208.63;5151214;28;20423;-46
2022/09/16 08:34:38;;;;;;;4.95;1.20;;;;;;;16.81;48.41;101220.25;5144725;28;20791;-47
2022/09/16 08:37:45;;;;;;;6.88;1.58;;;;;;;16.45;49.37;101230.75;5161297;28;20057;-47
2022/09/16 08:40:23;;;;;;;6.43;1.23;;;;;;;16.04;50.28;101217.69;5130744;28;20144;-50
2022/09/16 08:43:05;;;;;;;9.85;2.38;;;;;;;15.53;51.05;101198.63;5139927;28;20484;-42
2022/09/16 08:45:47;;;;;;;7.63;2.05;;;;;;;15.35;51.34;101212.16;5138065;28;20612;-50
2022/09/16 08:48:33;;;;;;;7.35;2.42;;;;;;;15.15;51.81;101204.59;5129709;28;20443;-42
2022/09/16 08:51:12;;;;;;;6.55;1.33;;;;;;;15.09;51.69;101202.59;5135716;28;20462;-48
2022/09/16 08:53:52;;;;;;;6.50;1.75;;;;;;;15.13;51.62;101192.44;5137600;28;20049;-48
2022/09/16 08:56:28;;;;;;;1.25;1.02;;;;;;;15.13;51.75;101187.13;5126851;28;20049;-46
2022/09/16 08:59:09;;;;;;;12.05;2.25;;;;;;;15.27;51.76;101197.06;5137060;28;20417;-48
2022/09/16 09:01:48;;;;;;;8.55;1.33;;;;;;;15.29;51.68;101170.28;5136730;28;20343;-47
2022/09/16 09:04:22;;;;;;;5.50;1.90;;;;;;;15.57;51.54;101176.78;5138613;28;20069;-46
2022/09/16 09:07:06;;;;;;;5.97;1.50;;;;;;;15.98;51.07;101181.94;5129782;28;20344;-46
2022/09/16 09:09:55;;;;;;;5.85;1.27;;;;;;;16.59;49.89;101196.09;5149166;28;21492;-43
2022/09/16 09:12:37;;;;;;;6.40;2.10;;;;;;;16.59;50.56;101222.75;5141536;28;20362;-43
2022/09/16 09:15:34;;;;;;;5.68;1.83;;;;;;;16.19;51.21;101199.09;5148719;28;21578;-42
2022/09/16 09:18:23;;;;;;;3.50;1.23;;;;;;;15.77;52.44;101211.84;5145660;28;20118;-38
2022/09/16 09:21:09;;;;;;;7.60;2.05;;;;;;;15.52;52.87;101215.63;5138784;28;20111;-47
2022/09/16 09:24:01;;;;;;;10.60;1.80;;;;;;;15.33;53.31;101224.81;5150151;28;20412;-44
2022/09/16 09:26:44;;;;;;;12.27;5.15;;;;;;;15.19;53.37;101215.72;5143940;28;20098;-43
2022/09/16 09:29:37;;;;;;;11.63;2.58;;;;;;;15.17;53.30;101204.41;5140542;28;20057;-45
2022/09/16 09:32:25;;;;;;;8.03;1.63;;;;;;;15.38;53.18;101207.31;5142905;28;20668;-40
2022/09/16 09:35:18;;;;;;;9.18;2.22;;;;;;;15.83;52.86;101226.31;5136445;28;20741;-46
2022/09/16 09:38:30;;;;;;;;;;;;;;;16.44;51.99;101218.41;5141882;28;20055;-44
2022/09/16 09:41:09;;;;;;;7.90;2.38;;;;;;;17.19;50.91;101212.22;5121150;28;20415;-46
2022/09/16 09:43:49;;;;;;;11.18;2.45;;;;;;;17.75;50.27;101207.19;5145424;28;20388;-43
2022/09/16 09:46:27;;;;;;;7.80;1.75;;;;;;;17.97;50.14;101222.25;5141615;28;20056;-50
2022/09/16 09:49:24;;;;;;;10.05;2.05;;;;;;;17.87;50.65;101210.22;5143962;28;20158;-49
2022/09/16 09:52:02;;;;;;;9.77;2.53;;;;;;;17.72;51.31;101223.59;5145086;28;20105;-48
2022/09/16 09:54:38;;;;;;;7.18;1.77;;;;;;;17.70;51.58;101212.25;5144170;28;20063;-44
2022/09/16 09:57:22;;;;;;;7.72;1.30;;;;;;;18.00;51.13;101212.22;5141060;28;20481;-48
2022/09/16 10:00:07;;;;;;;12.85;1.63;;;;;;;18.33;50.80;101205.31;5139576;28;20327;-46
2022/09/16 10:02:43;;;;;;;4.15;1.30;;;;;;;18.44;50.58;101191.44;5137802;28;20045;-46
2022/09/16 10:05:24;;;;;;;7.90;1.73;;;;;;;18.33;50.60;101178.59;5146251;28;20049;-48
2022/09/16 10:08:02;;;;;;;8.68;1.65;;;;;;;18.27;51.29;101186.56;5135207;28;20689;-46
2022/09/16 10:10:45;;;;;;;6.93;1.90;;;;;;;18.15;51.65;101186.25;5147850;28;20051;-44
2022/09/16 10:13:19;;;;;;;8.57;2.55;;;;;;;18.11;51.57;101177.78;5152114;28;20128;-48
2022/09/16 10:16:06;;;;;;;6.32;1.70;;;;;;;18.12;51.88;101175.94;5137190;28;20655;-47
2022/09/16 10:18:40;;;;;;;9.90;1.58;;;;;;;18.14;52.03;101173.91;5138042;28;20443;-48
2022/09/16 10:21:17;;;;;;;6.90;1.60;;;;;;;18.19;51.90;101177.66;5147421;28;20049;-44
2022/09/16 10:23:56;;;;;;;9.73;1.98;;;;;;;18.19;52.17;101179.50;5140531;28;20361;-41
2022/09/16 10:26:39;;;;;;;12.18;2.95;;;;;;;18.07;52.35;101191.72;5113370;28;20076;-45
2022/09/16 10:29:18;;;;;;;8.48;1.90;;;;;;;17.76;52.69;101198.16;5143653;28;20407;-48
2022/09/16 10:31:51;;;;;;;20.40;4.65;;;;;;;17.30;53.35;101198.41;5147287;28;20468;-44
2022/09/16 10:34:31;;;;;;;12.65;3.97;;;;;;;16.79;53.65;101190.28;5146396;28;20122;-45
2022/09/16 10:37:15;;;;;;;16.17;2.10;;;;;;;16.50;54.03;101207.84;5157021;28;20142;-45
2022/09/16 10:39:54;;;;;;;14.20;2.45;;;;;;;16.28;54.21;101203.34;5150805;28;20500;-43
2022/09/16 10:42:29;;;;;;;14.23;2.78;;;;;;;15.95;54.46;101194.75;5164807;28;20095;-45
2022/09/16 10:45:10;;;;;;;9.77;2.17;;;;;;;15.65;55.03;101190.06;5162517;28;20379;-45
2022/09/16 10:47:51;;;;;;;15.05;2.00;;;;;;;15.55;55.13;101186.81;5161929;28;20111;-46
2022/09/16 10:50:25;;;;;;;11.93;3.05;;;;;;;15.50;55.10;101181.16;5148906;28;20053;-50
2022/09/16 10:52:57;;;;;;;;;;;;;;;15.64;55.02;101195.59;5154206;28;20514;-39
2022/09/16 10:55:34;;;;;;;9.70;2.63;;;;;;;15.68;54.97;101189.75;5152922;28;19943;-43
2022/09/16 10:58:18;;;;;;;11.02;2.72;;;;;;;15.82;54.81;101187.34;5172854;28;20047;-43
2022/09/16 11:01:05;;;;;;;8.90;2.95;;;;;;;15.99;54.88;101188.91;5153014;28;20037;-46
2022/09/16 11:04:23;;;;;;;14.60;3.55;;;;;;;16.25;54.69;101179.72;5144864;28;20045;-45
2022/09/16 11:07:10;;;;;;;11.10;2.10;;;;;;;16.61;54.42;101187.94;5150310;28;20041;-42
2022/09/16 11:09:55;;;;;;;14.73;2.67;;;;;;;16.96;53.88;101181.09;5166389;28;20083;-46
2022/09/16 11:13:05;;;;;;;10.05;2.55;;;;;;;17.37;53.68;101177.94;5159880;28;20516;-43
2022/09/16 11:15:56;;;;;;;15.55;3.42;;;;;;;17.45;53.45;101185.88;5170723;28;20041;-48
2022/09/16 11:18:45;;;;;;;15.27;3.83;;;;;;;17.59;52.96;101175.34;5159240;28;20040;-45
2022/09/16 11:21:45;;;;;;;10.27;3.25;;;;;;;17.69;52.76;101186.56;5165773;28;20045;-44
2022/09/16 11:24:50;;;;;;;12.23;2.83;;;;;;;17.60;52.98;101166.31;5170128;28;20048;-45
2022/09/16 11:27:36;;;;;;;9.57;2.55;;;;;;;17.83;52.71;101169.69;5156377;28;20045;-44
2022/09/16 11:30:13;;;;;;;7.13;1.83;;;;;;;17.91;52.24;101164.22;5157038;28;20397;-45
2022/09/16 11:33:03;;;;;;;11.60;3.17;;;;;;;18.09;51.98;101165.66;5158272;28;20041;-46
2022/09/16 11:36:08;;;;;;;16.65;3.28;;;;;;;18.22;51.50;101170.28;5163151;28;20053;-46
2022/09/16 11:38:50;;;;;;;18.13;3.90;;;;;;;18.42;51.12;101180.09;5123415;28;20037;-47
2022/09/16 11:41:31;;;;;;;11.95;2.50;;;;;;;18.57;50.81;101168.50;5168162;28;20319;-49
2022/09/16 11:44:22;;;;;;;16.17;3.47;;;;;;;18.51;50.65;101169.28;5167681;28;20493;-47
2022/09/16 11:47:10;;;;;;;14.75;2.80;;;;;;;18.23;50.63;101182.63;5151711;28;20478;-48
2022/09/16 11:50:04;;;;;;;10.48;2.58;;;;;;;17.95;51.37;101176.19;5170044;28;20045;-46
2022/09/16 11:52:57;;;;;;;9.93;3.17;;;;;;;17.75;51.52;101188.50;5163072;28;20083;-48
2022/09/16 11:55:45;;;;;;;14.23;2.72;;;;;;;17.62;51.94;101177.63;5155102;28;20338;-45
2022/09/16 11:58:37;;;;;;;7.10;2.10;;;;;;;17.72;51.94;101186.19;5153526;28;20045;-44
2022/09/16 12:01:22;;;;;;;19.27;3.35;;;;;;;17.80;51.55;101186.09;5152639;28;20127;-46
2022/09/16 12:03:59;;;;;;;8.85;3.13;;;;;;;17.88;51.51;101188.66;5167370;28;20052;-46
2022/09/16 12:06:42;;;;;;;15.18;2.05;;;;;;;17.90;51.52;101191.97;5169703;28;20052;-44
2022/09/16 12:09:22;;;;;;;10.20;2.08;;;;;;;18.01;51.01;101184.47;5168701;28;20378;-49
2022/09/16 12:12:03;;;;;;;5.90;2.00;;;;;;;18.03;50.69;101183.25;5165526;28;20049;-50
2022/09/16 12:14:41;;;;;;;12.52;1.90;;;;;;;18.08;50.90;101180.00;5162448;28;20482;-46
2022/09/16 12:17:20;;;;;;;7.30;2.10;;;;;;;18.26;50.57;101183.06;5166522;28;20113;-44
2022/09/16 12:19:59;;;;;;;7.03;2.20;;;;;;;18.40;50.45;101174.16;5158755;28;20071;-45
2022/09/16 12:22:41;;;;;;;14.18;2.15;;;;;;;18.51;50.16;101179.97;5158769;28;20038;-44